Karm Viking — LAIZ — position and weather

sailwx.info

Track history (hours):
 
Tides and Currents Weather Stations Pressure Air Temp Water Temp Dewpoint Dewpoint Depression Visibility Wind Speed Wind Dir Waves Ship Positions

Karm Viking

Last reported at 2014-Aug-14 19:08 UTC. Time now 2014-Aug-21 02:23 UTC.
Position N 70°44' E 023°36'.

Length 40 m; draft 5.5 m.

Type: Cargo ship. MMSI: 258274000.

Date/timePositionNaut miles runAvg speedWind from/ knotsBaromVisibWave heightAir tempDewpointWater temp
2014-Aug-14 19:08N 70°44' E 023°36'4 7.4
2014-Aug-14 18:33N 70°40' E 023°39'1 0.6
2014-Aug-14 17:33N 70°40' E 023°41'3 2.6
2014-Aug-14 16:33N 70°39' E 023°33'7 6.9
2014-Aug-14 15:33N 70°36' E 023°15'249 7.8
2014-Aug-13 07:24N 67°54' E 014°21'8 9.3
2014-Aug-13 06:31N 67°47' E 014°09'75 9.3
2014-Aug-12 22:30N 66°46' E 012°16'9 9.6
2014-Aug-12 21:33N 66°39' E 012°03'10 9.7
2014-Aug-12 20:32N 66°31' E 011°49'231 9.5
2014-Aug-11 20:10N 63°19' E 006°46'  
2014-Aug-05 07:15N 62°41' E 005°34'  
Track history (hours):
 
Tides and Currents Weather Stations Pressure Air Temp Water Temp Dewpoint Dewpoint Depression Visibility Wind Speed Wind Dir Waves Ship Positions

Karm Viking

Last reported at 2014-Aug-14 19:08 UTC. Time now 2014-Aug-21 02:23 UTC.
Position N 70°44' E 023°36'.

Length 40 m; draft 5.5 m.

Type: Cargo ship. MMSI: 258274000.

Date/timePositionNaut miles runAvg speedWind from/ knotsBaromVisibWave heightAir tempDewpointWater temp
2014-Aug-14 19:08N 70°44' E 023°36'4 7.4
2014-Aug-14 18:33N 70°40' E 023°39'1 0.6
2014-Aug-14 17:33N 70°40' E 023°41'3 2.6
2014-Aug-14 16:33N 70°39' E 023°33'7 6.9
2014-Aug-14 15:33N 70°36' E 023°15'249 7.8
2014-Aug-13 07:24N 67°54' E 014°21'8 9.3
2014-Aug-13 06:31N 67°47' E 014°09'75 9.3
2014-Aug-12 22:30N 66°46' E 012°16'9 9.6
2014-Aug-12 21:33N 66°39' E 012°03'10 9.7
2014-Aug-12 20:32N 66°31' E 011°49'231 9.5
2014-Aug-11 20:10N 63°19' E 006°46'  
2014-Aug-05 07:15N 62°41' E 005°34'  

Dump ship's entire track history